Time;durP1;ratioP1;P1;durP2;ratioP2;P2;SDS_P1;SDS_P2;PMS_P1;PMS_P2;Temp;Humidity;BMP_temperature;BMP_pressure;BME280_temperature;BME280_humidity;BME280_pressure;Samples;Min_cycle;Max_cycle;Signal;HPM_P1;HPM_P2
2022/09/07 00:00:40;;;;;;;14.38;8.43;;;;;;;-146.58;100.00;69501.63;4991678;28;20576;-66
2022/09/07 00:03:05;;;;;;;15.40;8.60;;;;;;;-146.58;100.00;69501.63;4992697;28;20386;-72
2022/09/07 00:05:31;;;;;;;12.27;7.57;;;;;;;-146.58;100.00;69501.63;4991710;28;20046;-71
2022/09/07 00:07:57;;;;;;;14.45;10.18;;;;;;;-146.58;100.00;69501.63;4993334;28;20050;-69
2022/09/07 00:10:23;;;;;;;17.60;10.57;;;;;;;-146.58;100.00;69501.63;4991998;28;20054;-67
2022/09/07 00:12:49;;;;;;;9.85;7.80;;;;;;;-146.58;100.00;69501.63;4992976;28;20054;-67
2022/09/07 00:15:15;;;;;;;15.30;7.82;;;;;;;-146.58;100.00;69501.63;4991869;28;20052;-66
2022/09/07 00:17:40;;;;;;;14.50;8.68;;;;;;;-146.58;100.00;69501.63;4993059;28;20026;-65
2022/09/07 00:20:07;;;;;;;14.20;11.00;;;;;;;-146.58;100.00;69501.63;4990529;28;20058;-63
2022/09/07 00:22:33;;;;;;;12.90;11.52;;;;;;;-146.58;100.00;69501.63;4992333;28;20034;-65
2022/09/07 00:24:58;;;;;;;13.23;11.50;;;;;;;-146.58;100.00;69501.63;4991665;28;20498;-64
2022/09/07 00:27:24;;;;;;;17.40;12.25;;;;;;;-146.58;100.00;69501.63;4993132;28;20465;-65
2022/09/07 00:29:49;;;;;;;18.75;12.20;;;;;;;-146.58;100.00;69501.63;4991151;28;20050;-64
2022/09/07 00:32:15;;;;;;;18.50;12.23;;;;;;;-146.58;100.00;69501.63;4993043;28;20097;-64
2022/09/07 00:34:40;;;;;;;20.60;15.00;;;;;;;-146.58;100.00;69501.63;4991463;28;20034;-65
2022/09/07 00:37:06;;;;;;;15.82;12.48;;;;;;;-146.58;100.00;69501.63;4992382;28;20034;-65
2022/09/07 00:39:32;;;;;;;19.08;13.20;;;;;;;-146.58;100.00;69501.63;4991391;28;20042;-65
2022/09/07 00:41:58;;;;;;;20.17;14.38;;;;;;;-146.58;100.00;69501.63;4992937;28;20026;-65
2022/09/07 00:44:41;;;;;;;16.63;14.77;;;;;;;-146.58;100.00;69501.63;4991068;28;20401;-66
2022/09/07 00:47:12;;;;;;;20.75;17.17;;;;;;;-146.58;100.00;69501.63;4992836;28;20386;-65
2022/09/07 00:49:38;;;;;;;31.13;20.52;;;;;;;-146.58;100.00;69501.63;4990964;28;20438;-64
2022/09/07 00:52:06;;;;;;;23.75;19.40;;;;;;;-146.58;100.00;69501.63;4992241;28;20544;-66
2022/09/07 00:54:37;;;;;;;26.10;18.45;;;;;;;-146.58;100.00;69501.63;4990871;28;20561;-66
2022/09/07 00:57:03;;;;;;;21.85;18.23;;;;;;;-146.58;100.00;69501.63;4992708;28;20053;-64
2022/09/07 00:59:33;;;;;;;21.30;17.67;;;;;;;-146.58;100.00;69501.63;4990533;28;20498;-65
2022/09/07 01:01:59;;;;;;;25.60;18.48;;;;;;;-146.58;100.00;69501.63;4992377;28;20030;-65
2022/09/07 01:04:25;;;;;;;24.58;20.08;;;;;;;-146.58;100.00;69501.63;4990970;28;20150;-70
2022/09/07 01:06:53;;;;;;;33.97;18.95;;;;;;;-146.58;100.00;69501.63;4991987;28;20111;-71
2022/09/07 01:09:22;;;;;;;23.98;18.95;;;;;;;-146.58;100.00;69501.63;4991034;28;20030;-67
2022/09/07 01:11:50;;;;;;;;;;;;;;;-146.58;100.00;69501.63;4992717;28;20033;-67
2022/09/07 01:14:18;;;;;;;;;;;;;;;-146.58;100.00;69501.63;4990116;28;19917;-65
2022/09/07 01:16:58;;;;;;;27.83;18.77;;;;;;;-146.58;100.00;69501.63;4992048;28;20424;-67
2022/09/07 01:19:56;;;;;;;26.98;18.90;;;;;;;-146.58;100.00;69501.63;4990610;28;20062;-65
2022/09/07 01:22:30;;;;;;;17.00;14.73;;;;;;;-146.58;100.00;69501.63;4991794;28;20041;-64
2022/09/07 01:25:13;;;;;;;25.23;18.17;;;;;;;-146.58;100.00;69501.63;4990495;28;20129;-64
2022/09/07 01:27:56;;;;;;;14.98;13.27;;;;;;;-146.58;100.00;69501.63;4991369;28;20041;-65
2022/09/07 01:30:22;;;;;;;28.05;14.95;;;;;;;-146.58;100.00;69501.63;4990611;28;20046;-67
2022/09/07 01:33:19;;;;;;;14.98;13.55;;;;;;;-146.58;100.00;69501.63;4991944;28;20061;-64
2022/09/07 01:36:14;;;;;;;18.17;13.63;;;;;;;-146.58;100.00;69501.63;4989979;28;20039;-67
2022/09/07 01:38:45;;;;;;;14.85;13.27;;;;;;;-146.58;100.00;69501.63;4990458;28;20058;-66
2022/09/07 01:41:19;;;;;;;25.75;15.20;;;;;;;-146.58;100.00;69501.63;4991938;28;20041;-67
2022/09/07 01:43:51;;;;;;;23.50;13.90;;;;;;;-146.58;100.00;69501.63;4989869;28;20030;-67
2022/09/07 01:46:26;;;;;;;20.48;15.40;;;;;;;-146.58;100.00;69501.63;4991962;28;20030;-68
2022/09/07 01:48:56;;;;;;;17.77;13.50;;;;;;;-146.58;100.00;69501.63;4990438;28;20034;-67
2022/09/07 01:51:29;;;;;;;15.82;13.30;;;;;;;-146.58;100.00;69501.63;4991306;28;20029;-68
2022/09/07 01:53:59;;;;;;;17.05;13.15;;;;;;;-146.58;100.00;69501.63;4990030;28;20046;-68
2022/09/07 01:56:45;;;;;;;18.40;15.48;;;;;;;-146.58;100.00;69501.63;4991559;28;20023;-68
2022/09/07 01:59:22;;;;;;;18.23;15.30;;;;;;;-146.58;100.00;69501.63;4990558;28;20034;-68
2022/09/07 02:02:08;;;;;;;16.50;13.52;;;;;;;-146.58;100.00;69501.63;4991507;28;20027;-68
2022/09/07 02:04:39;;;;;;;13.68;12.00;;;;;;;-146.58;100.00;69501.63;4989652;28;20038;-68
2022/09/07 02:07:16;;;;;;;15.82;13.68;;;;;;;-146.58;100.00;69501.63;4991580;28;20045;-68
2022/09/07 02:10:09;;;;;;;17.43;13.83;;;;;;;-146.58;100.00;69501.63;4990215;28;20039;-67
2022/09/07 02:12:54;;;;;;;23.70;14.50;;;;;;;-146.58;100.00;69501.63;4991274;28;20381;-68
2022/09/07 02:15:27;;;;;;;18.92;15.40;;;;;;;-146.58;100.00;69501.63;4990359;28;20104;-68
2022/09/07 02:18:01;;;;;;;14.48;13.00;;;;;;;-146.58;100.00;69501.63;4991249;28;20030;-67
2022/09/07 02:20:38;;;;;;;21.55;15.18;;;;;;;-146.58;100.00;69501.63;4989470;28;20050;-68
2022/09/07 02:23:07;;;;;;;15.02;13.48;;;;;;;-146.58;100.00;69501.63;4991380;28;20118;-67
2022/09/07 02:25:37;;;;;;;20.60;14.10;;;;;;;-146.58;100.00;69501.63;4991307;28;20047;-67
2022/09/07 02:28:07;;;;;;;15.77;13.43;;;;;;;-146.58;100.00;69501.63;4995271;28;20382;-68
2022/09/07 02:30:32;;;;;;;15.00;13.18;;;;;;;-146.58;100.00;69501.63;4993481;28;20116;-67
2022/09/07 02:32:58;;;;;;;16.52;14.57;;;;;;;-146.58;100.00;69501.63;4995406;28;20030;-67
2022/09/07 02:35:23;;;;;;;14.20;12.57;;;;;;;-146.58;100.00;69501.63;4993322;28;20046;-68
2022/09/07 02:37:51;;;;;;;27.10;16.70;;;;;;;-146.58;100.00;69501.63;4995004;28;20030;-67
2022/09/07 02:40:16;;;;;;;38.75;16.50;;;;;;;-146.58;100.00;69501.63;4993546;28;20073;-67
2022/09/07 02:42:44;;;;;;;16.45;13.43;;;;;;;-146.58;100.00;69501.63;4994462;28;20034;-68
2022/09/07 02:45:12;;;;;;;18.30;14.68;;;;;;;-146.58;100.00;69501.63;4993804;28;20121;-67
2022/09/07 02:47:47;;;;;;;48.22;15.15;;;;;;;-146.58;100.00;69501.63;4994561;28;20034;-67
2022/09/07 02:50:38;;;;;;;21.63;14.63;;;;;;;-146.58;100.00;69501.63;4993241;28;20445;-67
2022/09/07 02:53:34;;;;;;;20.02;16.00;;;;;;;-146.58;100.00;69501.63;4995153;28;20049;-67
2022/09/07 02:56:29;;;;;;;16.00;13.88;;;;;;;-146.58;100.00;69501.63;4973809;28;20070;-65
2022/09/07 02:59:22;;;;;;;22.73;15.02;;;;;;;-146.58;100.00;69501.63;4976872;28;20053;-65
2022/09/07 03:02:20;;;;;;;55.08;14.88;;;;;;;-146.58;100.00;69501.63;4994210;28;20034;-65
2022/09/07 03:04:53;;;;;;;159.80;18.40;;;;;;;-146.58;100.00;69501.63;4992633;28;20118;-64
2022/09/07 03:07:24;;;;;;;225.57;17.25;;;;;;;-146.58;100.00;69501.63;4994557;28;20117;-65
2022/09/07 03:09:53;;;;;;;14.95;10.57;;;;;;;-146.58;100.00;69501.63;4992989;28;20506;-65
2022/09/07 03:12:19;;;;;;;12.23;11.02;;;;;;;-146.58;100.00;69501.63;4994284;28;20034;-65
2022/09/07 03:14:45;;;;;;;26.73;11.00;;;;;;;-146.58;100.00;69501.63;4992881;28;20042;-67
2022/09/07 03:17:10;;;;;;;36.10;11.43;;;;;;;-146.58;100.00;69501.63;4994257;28;20041;-67
2022/09/07 03:19:36;;;;;;;23.88;12.65;;;;;;;-146.58;100.00;69501.63;4992480;28;20046;-67
2022/09/07 03:22:03;;;;;;;70.18;17.95;;;;;;;-146.58;100.00;69501.63;4994316;28;20034;-67
2022/09/07 03:24:28;;;;;;;49.60;9.50;;;;;;;-146.58;100.00;69501.63;4992896;28;20042;-67
2022/09/07 03:26:54;;;;;;;10.38;9.27;;;;;;;-146.58;100.00;69501.63;4993978;28;20077;-67
2022/09/07 03:29:19;;;;;;;16.83;11.32;;;;;;;-146.58;100.00;69501.63;4992555;28;20054;-67
2022/09/07 03:31:45;;;;;;;14.85;12.15;;;;;;;-146.58;100.00;69501.63;4974457;28;20033;-67
2022/09/07 03:34:10;;;;;;;16.13;14.52;;;;;;;-146.58;100.00;69501.63;4973115;28;20374;-66
2022/09/07 03:36:36;;;;;;;45.08;15.02;;;;;;;-146.58;100.00;69501.63;4973646;28;20027;-68
2022/09/07 03:39:02;;;;;;;23.50;14.85;;;;;;;-146.58;100.00;69501.63;4973351;28;20046;-66
2022/09/07 03:41:28;;;;;;;17.20;15.10;;;;;;;-146.58;100.00;69501.63;4991765;28;20026;-67
2022/09/07 03:43:53;;;;;;;21.27;16.48;;;;;;;-146.58;100.00;69501.63;4992251;28;20406;-66
2022/09/07 03:46:19;;;;;;;22.02;17.25;;;;;;;-146.58;100.00;69501.63;4993873;28;20509;-67
2022/09/07 03:48:46;;;;;;;25.17;18.38;;;;;;;-146.58;100.00;69501.63;4991961;28;20485;-65
2022/09/07 03:51:14;;;;;;;19.33;17.17;;;;;;;-146.58;100.00;69501.63;4993795;28;20018;-66
2022/09/07 03:53:42;;;;;;;20.63;17.97;;;;;;;-146.58;100.00;69501.63;4992164;28;20509;-65
2022/09/07 03:56:14;;;;;;;23.45;18.48;;;;;;;-146.58;100.00;69501.63;4993191;28;20026;-66
2022/09/07 03:58:40;;;;;;;21.35;18.95;;;;;;;-146.58;100.00;69501.63;4992094;28;20030;-67
2022/09/07 04:01:09;;;;;;;24.63;17.83;;;;;;;-146.58;100.00;69501.63;4993607;28;20497;-67
2022/09/07 04:03:34;;;;;;;;;;;;;;;-146.58;100.00;69501.63;4991959;28;20030;-63
2022/09/07 04:06:00;;;;;;;28.13;17.00;;;;;;;-146.58;100.00;69501.63;4993165;28;19913;-63
2022/09/07 04:08:30;;;;;;;21.27;17.20;;;;;;;-146.58;100.00;69501.63;4992838;28;20405;-62
2022/09/07 04:10:57;;;;;;;20.10;16.85;;;;;;;-146.58;100.00;69501.63;4990961;28;20038;-64
2022/09/07 04:13:24;;;;;;;19.00;16.33;;;;;;;-146.58;100.00;69501.63;4993499;28;20432;-64
2022/09/07 04:15:49;;;;;;;22.02;18.63;;;;;;;-146.58;100.00;69501.63;4991613;28;20457;-64
2022/09/07 04:18:15;;;;;;;22.00;16.13;;;;;;;-146.58;100.00;69501.63;4992549;28;20106;-64
2022/09/07 04:20:40;;;;;;;20.73;15.70;;;;;;;-146.58;100.00;69501.63;4991541;28;20512;-64
2022/09/07 04:23:05;;;;;;;21.02;17.38;;;;;;;-146.58;100.00;69501.63;4993117;28;20042;-68
2022/09/07 04:25:31;;;;;;;19.30;15.38;;;;;;;-146.58;100.00;69501.63;5007569;28;20042;-68
2022/09/07 04:27:57;;;;;;;21.60;15.93;;;;;;;-146.58;100.00;69501.63;5012411;28;20022;-68
2022/09/07 04:30:23;;;;;;;31.75;19.27;;;;;;;-146.58;100.00;69501.63;4993337;28;20046;-68
2022/09/07 04:32:48;;;;;;;34.10;19.00;;;;;;;-146.58;100.00;69501.63;4992344;28;20065;-68
2022/09/07 04:35:14;;;;;;;22.08;17.77;;;;;;;-146.58;100.00;69501.63;4991239;28;20552;-68
2022/09/07 04:37:39;;;;;;;30.73;18.77;;;;;;;-146.58;100.00;69501.63;4992443;28;20379;-68
2022/09/07 04:40:04;;;;;;;23.50;17.45;;;;;;;-146.58;100.00;69501.63;4990630;28;20039;-67
2022/09/07 04:42:30;;;;;;;22.55;17.55;;;;;;;-146.58;100.00;69501.63;4992646;28;20034;-66
2022/09/07 04:44:55;;;;;;;21.83;18.15;;;;;;;-146.58;100.00;69501.63;4991217;28;20039;-67
2022/09/07 04:47:21;;;;;;;20.83;17.58;;;;;;;-146.58;100.00;69501.63;4992396;28;20041;-67
2022/09/07 04:49:49;;;;;;;22.52;17.85;;;;;;;-146.58;100.00;69501.63;4990951;28;20466;-67
2022/09/07 04:52:15;;;;;;;;;;;;;;;-146.58;100.00;69501.63;4993440;28;20018;-65
2022/09/07 04:54:40;;;;;;;20.13;15.43;;;;;;;-146.58;100.00;69501.63;4990683;28;20266;-65
2022/09/07 04:57:05;;;;;;;17.90;16.00;;;;;;;-146.58;100.00;69501.63;4992648;28;20027;-65
2022/09/07 04:59:31;;;;;;;20.98;16.13;;;;;;;-146.58;100.00;69501.63;4991314;28;20049;-64
2022/09/07 05:01:56;;;;;;;18.73;16.08;;;;;;;-146.58;100.00;69501.63;4991976;28;20042;-64
2022/09/07 05:04:21;;;;;;;20.73;16.60;;;;;;;-146.58;100.00;69501.63;4990997;28;20042;-65
2022/09/07 05:06:47;;;;;;;21.02;17.98;;;;;;;-146.58;100.00;69501.63;4992177;28;20073;-65
2022/09/07 05:09:12;;;;;;;28.75;20.67;;;;;;;-146.58;100.00;69501.63;4990710;28;20521;-65
2022/09/07 05:11:37;;;;;;;25.33;19.65;;;;;;;-146.58;100.00;69501.63;4992102;28;20225;-65
2022/09/07 05:14:03;;;;;;;21.70;17.27;;;;;;;-146.58;100.00;69501.63;4991031;28;20045;-66
2022/09/07 05:16:29;;;;;;;24.90;20.20;;;;;;;-146.58;100.00;69501.63;4992012;28;20050;-67
2022/09/07 05:19:00;;;;;;;24.08;19.27;;;;;;;-146.58;100.00;69501.63;4990689;28;20047;-66
2022/09/07 05:21:27;;;;;;;21.23;17.83;;;;;;;-146.58;100.00;69501.63;4992280;28;20452;-67
2022/09/07 05:23:55;;;;;;;27.02;19.52;;;;;;;-146.58;100.00;69501.63;4989918;28;20532;-67
2022/09/07 05:26:22;;;;;;;26.25;21.10;;;;;;;-146.58;100.00;69501.63;4992259;28;20482;-67
2022/09/07 05:28:48;;;;;;;37.72;21.92;;;;;;;-146.58;100.00;69501.63;4990711;28;20077;-67
2022/09/07 05:31:15;;;;;;;27.98;20.30;;;;;;;-146.58;100.00;69501.63;4991460;28;20505;-63
2022/09/07 05:33:46;;;;;;;28.02;20.48;;;;;;;-146.58;100.00;69501.63;4990351;28;20027;-63
2022/09/07 05:36:11;;;;;;;24.38;21.65;;;;;;;-146.58;100.00;69501.63;4992200;28;20022;-63
2022/09/07 05:38:37;;;;;;;28.75;23.33;;;;;;;-146.58;100.00;69501.63;4989986;28;20434;-65
2022/09/07 05:41:13;;;;;;;26.85;22.80;;;;;;;-146.58;100.00;69501.63;4991942;28;20030;-65
2022/09/07 05:43:39;;;;;;;26.48;22.58;;;;;;;-146.58;100.00;69501.63;4990011;28;20151;-65
2022/09/07 05:46:05;;;;;;;29.83;24.98;;;;;;;-146.58;100.00;69501.63;4990578;28;20482;-66
2022/09/07 05:48:30;;;;;;;34.83;25.17;;;;;;;-146.58;100.00;69501.63;4991180;28;20497;-66
2022/09/07 05:50:55;;;;;;;31.50;23.17;;;;;;;-146.58;100.00;69501.63;4989451;28;20042;-66
2022/09/07 05:53:21;;;;;;;34.15;26.17;;;;;;;-146.58;100.00;69501.63;4990890;28;20493;-66
2022/09/07 05:55:49;;;;;;;31.58;26.25;;;;;;;-146.58;100.00;69501.63;4989830;28;20034;-60
2022/09/07 05:58:15;;;;;;;33.22;26.58;;;;;;;-146.58;100.00;69501.63;4992002;28;20037;-59
2022/09/07 06:00:40;;;;;;;32.05;27.33;;;;;;;-146.58;100.00;69501.63;4993715;28;20161;-59
2022/09/07 06:03:06;;;;;;;38.22;29.02;;;;;;;-146.58;100.00;69501.63;4998273;28;20022;-59
2022/09/07 06:05:31;;;;;;;36.35;27.45;;;;;;;-146.58;100.00;69501.63;4996706;28;20413;-59
2022/09/07 06:07:56;;;;;;;32.60;27.77;;;;;;;-146.58;100.00;69501.63;4998154;28;20026;-59
2022/09/07 06:10:22;;;;;;;35.80;29.08;;;;;;;-146.58;100.00;69501.63;4996424;28;20069;-59
2022/09/07 06:12:47;;;;;;;41.47;30.02;;;;;;;-146.58;100.00;69501.63;4997814;28;20030;-59
2022/09/07 06:15:13;;;;;;;39.15;28.77;;;;;;;-146.58;100.00;69501.63;4996804;28;20038;-59
2022/09/07 06:17:38;;;;;;;38.80;31.27;;;;;;;-146.58;100.00;69501.63;4997564;28;20038;-58
2022/09/07 06:20:05;;;;;;;36.45;28.92;;;;;;;-146.58;100.00;69501.63;4996693;28;20436;-58
2022/09/07 06:22:35;;;;;;;43.42;31.17;;;;;;;-146.58;100.00;69501.63;4997987;28;20505;-59
2022/09/07 06:25:00;;;;;;;34.25;28.92;;;;;;;-146.58;100.00;69501.63;4996356;28;20038;-58
2022/09/07 06:27:25;;;;;;;38.47;29.38;;;;;;;-146.58;100.00;69501.63;4997851;28;20512;-58
2022/09/07 06:29:51;;;;;;;40.28;28.70;;;;;;;-146.58;100.00;69501.63;4996179;28;20061;-59
2022/09/07 06:32:16;;;;;;;38.60;28.90;;;;;;;-146.58;100.00;69501.63;4997581;28;20026;-59
2022/09/07 06:34:41;;;;;;;30.40;27.13;;;;;;;-146.58;100.00;69501.63;4996315;28;20053;-58
2022/09/07 06:37:07;;;;;;;34.97;27.15;;;;;;;-146.58;100.00;69501.63;4997951;28;20037;-59
2022/09/07 06:39:35;;;;;;;34.38;27.20;;;;;;;-146.58;100.00;69501.63;4996038;28;20043;-59
2022/09/07 06:42:00;;;;;;;33.17;28.40;;;;;;;-146.58;100.00;69501.63;4997593;28;20023;-59
2022/09/07 06:44:26;;;;;;;33.80;28.90;;;;;;;-146.58;100.00;69501.63;4996277;28;20042;-59
2022/09/07 06:46:51;;;;;;;37.58;29.20;;;;;;;-146.58;100.00;69501.63;4997101;28;20521;-58
2022/09/07 06:49:17;;;;;;;36.72;30.40;;;;;;;-146.58;100.00;69501.63;4996042;28;20104;-59
2022/09/07 06:51:42;;;;;;;47.13;29.10;;;;;;;-146.58;100.00;69501.63;4997584;28;20029;-59
2022/09/07 06:54:08;;;;;;;33.58;26.08;;;;;;;-146.58;100.00;69501.63;4996103;28;20043;-59
2022/09/07 06:56:33;;;;;;;35.67;27.98;;;;;;;-146.58;100.00;69501.63;4997377;28;20484;-58
2022/09/07 06:58:59;;;;;;;36.83;26.77;;;;;;;-146.58;100.00;69501.63;4996426;28;20049;-59
2022/09/07 07:01:25;;;;;;;33.53;27.88;;;;;;;-146.58;100.00;69501.63;4997533;28;20026;-59
2022/09/07 07:03:52;;;;;;;34.00;25.90;;;;;;;-146.58;100.00;69501.63;4992625;28;20046;-59
2022/09/07 07:06:19;;;;;;;33.33;28.07;;;;;;;-146.58;100.00;69501.63;5015972;28;20034;-59
2022/09/07 07:08:45;;;;;;;33.42;26.42;;;;;;;-146.58;100.00;69501.63;5008645;28;20049;-58
2022/09/07 07:11:12;;;;;;;37.58;27.25;;;;;;;-146.58;100.00;69501.63;4996744;28;20371;-58
2022/09/07 07:13:41;;;;;;;37.05;28.83;;;;;;;-146.58;100.00;69501.63;4993163;28;20121;-59
2022/09/07 07:16:09;;;;;;;26.52;23.73;;;;;;;-146.58;100.00;69501.63;4994332;28;20421;-59
2022/09/07 07:18:35;;;;;;;33.05;24.98;;;;;;;-146.58;100.00;69501.63;4992928;28;20436;-59
2022/09/07 07:21:03;;;;;;;33.95;27.58;;;;;;;-146.58;100.00;69501.63;4994237;28;20025;-59
2022/09/07 07:23:28;;;;;;;29.95;26.33;;;;;;;-146.58;100.00;69501.63;4993764;28;20105;-59
2022/09/07 07:25:54;;;;;;;27.77;24.10;;;;;;;-146.58;100.00;69501.63;4992332;28;20439;-59
2022/09/07 07:28:22;;;;;;;26.75;24.10;;;;;;;-146.58;100.00;69501.63;4994471;28;20027;-59
2022/09/07 07:30:48;;;;;;;;;;;;;;;-146.58;100.00;69501.63;4992538;28;20073;-59
2022/09/07 07:33:13;;;;;;;30.70;25.45;;;;;;;-146.58;100.00;69501.63;4993980;28;20396;-59
2022/09/07 07:35:38;;;;;;;30.98;25.50;;;;;;;-146.58;100.00;69501.63;4992206;28;20046;-59
2022/09/07 07:38:04;;;;;;;28.15;24.48;;;;;;;-146.58;100.00;69501.63;4993713;28;20025;-58
2022/09/07 07:40:30;;;;;;;35.47;27.48;;;;;;;-146.58;100.00;69501.63;4992537;28;20034;-58
2022/09/07 07:42:55;;;;;;;28.02;25.08;;;;;;;-146.58;100.00;69501.63;4993321;28;20041;-58
2022/09/07 07:45:21;;;;;;;30.13;26.85;;;;;;;-146.58;100.00;69501.63;4992152;28;20046;-59
2022/09/07 07:47:52;;;;;;;30.55;25.42;;;;;;;-146.58;100.00;69501.63;4993638;28;20026;-59
2022/09/07 07:50:18;;;;;;;28.05;24.88;;;;;;;-146.58;100.00;69501.63;4992331;28;20042;-58
2022/09/07 07:52:43;;;;;;;29.23;24.52;;;;;;;-146.58;100.00;69501.63;4993342;28;20157;-58
2022/09/07 07:55:08;;;;;;;32.42;26.13;;;;;;;-146.58;100.00;69501.63;4992281;28;20049;-58
2022/09/07 07:57:34;;;;;;;35.42;24.77;;;;;;;-146.58;100.00;69501.63;4993512;28;20018;-59
2022/09/07 07:59:59;;;;;;;30.10;26.42;;;;;;;-146.58;100.00;69501.63;4992053;28;20042;-58
2022/09/07 08:02:25;;;;;;;29.63;25.05;;;;;;;-146.58;100.00;69501.63;4993694;28;20470;-58
2022/09/07 08:04:51;;;;;;;30.10;27.08;;;;;;;-146.58;100.00;69501.63;4991819;28;20034;-59
2022/09/07 08:07:18;;;;;;;29.13;24.85;;;;;;;-146.58;100.00;69501.63;4993344;28;20030;-58
2022/09/07 08:09:45;;;;;;;28.55;23.77;;;;;;;-146.58;100.00;69501.63;4991970;28;20465;-59
2022/09/07 08:12:16;;;;;;;29.60;25.93;;;;;;;-146.58;100.00;69501.63;4993549;28;20030;-59
2022/09/07 08:14:41;;;;;;;31.65;26.50;;;;;;;-146.58;100.00;69501.63;4991749;28;20108;-59
2022/09/07 08:17:12;;;;;;;35.83;24.75;;;;;;;-146.58;100.00;69501.63;4993268;28;20469;-59
2022/09/07 08:19:38;;;;;;;35.80;25.70;;;;;;;-146.58;100.00;69501.63;4991991;28;20053;-59
2022/09/07 08:22:03;;;;;;;31.05;23.40;;;;;;;-146.58;100.00;69501.63;4992814;28;20022;-58
2022/09/07 08:24:30;;;;;;;29.27;26.48;;;;;;;-146.58;100.00;69501.63;4991396;28;20039;-58
2022/09/07 08:26:55;;;;;;;29.75;23.92;;;;;;;-146.58;100.00;69501.63;4993057;28;20024;-59
2022/09/07 08:29:21;;;;;;;27.45;24.50;;;;;;;-146.58;100.00;69501.63;4991282;28;20054;-59
2022/09/07 08:31:46;;;;;;;30.13;25.30;;;;;;;-146.58;100.00;69501.63;4992876;28;20037;-59
2022/09/07 08:34:11;;;;;;;27.13;21.73;;;;;;;-146.58;100.00;69501.63;4991866;28;20042;-59
2022/09/07 08:36:37;;;;;;;29.33;26.25;;;;;;;-146.58;100.00;69501.63;4992336;28;20023;-58
2022/09/07 08:39:02;;;;;;;31.73;26.83;;;;;;;-146.58;100.00;69501.63;4991778;28;20046;-58
2022/09/07 08:41:56;;;;;;;29.80;23.60;;;;;;;-146.58;100.00;69501.63;4992991;28;20089;-59
2022/09/07 08:44:30;;;;;;;25.88;23.20;;;;;;;-146.58;100.00;69501.63;4990992;28;20042;-59
2022/09/07 08:46:58;;;;;;;28.60;25.60;;;;;;;-146.58;100.00;69501.63;4992595;28;20054;-59
2022/09/07 08:49:42;;;;;;;;;;;;;;;-146.58;100.00;69501.63;4991983;28;20045;-58
2022/09/07 08:52:38;;;;;;;26.33;23.52;;;;;;;-146.58;100.00;69501.63;4992436;28;20004;-59
2022/09/07 08:55:13;;;;;;;32.03;25.55;;;;;;;-146.58;100.00;69501.63;4974024;28;20121;-59
2022/09/07 08:57:43;;;;;;;29.60;22.92;;;;;;;-146.58;100.00;69501.63;4992310;28;20030;-59
2022/09/07 09:00:15;;;;;;;25.08;22.55;;;;;;;-146.58;100.00;69501.63;4991074;28;20042;-59
2022/09/07 09:02:40;;;;;;;23.85;21.45;;;;;;;-146.58;100.00;69501.63;4992623;28;20029;-58
2022/09/07 09:05:21;;;;;;;28.95;24.52;;;;;;;-146.58;100.00;69501.63;4990736;28;20034;-58
2022/09/07 09:07:58;;;;;;;28.40;22.55;;;;;;;-146.58;100.00;69501.63;4991990;28;20030;-59
2022/09/07 09:10:35;;;;;;;26.58;23.35;;;;;;;-146.58;100.00;69501.63;4991068;28;20510;-59
2022/09/07 09:13:17;;;;;;;28.58;24.80;;;;;;;-146.58;100.00;69501.63;4991788;28;20037;-59
2022/09/07 09:15:53;;;;;;;25.25;22.15;;;;;;;-146.58;100.00;69501.63;4990569;28;20097;-59
2022/09/07 09:18:33;;;;;;;23.90;21.45;;;;;;;-146.58;100.00;69501.63;4992323;28;20037;-59
2022/09/07 09:21:00;;;;;;;30.10;24.02;;;;;;;-146.58;100.00;69501.63;4989807;28;20716;-59
2022/09/07 09:23:35;;;;;;;26.52;23.73;;;;;;;-146.58;100.00;69501.63;4991954;28;20060;-59
2022/09/07 09:26:19;;;;;;;28.45;23.08;;;;;;;-146.58;100.00;69501.63;4990735;28;20088;-59
2022/09/07 09:28:44;;;;;;;25.15;22.45;;;;;;;-146.58;100.00;69501.63;4990299;28;20375;-59
2022/09/07 09:31:18;;;;;;;24.08;21.02;;;;;;;-146.58;100.00;69501.63;4991790;28;20045;-59
2022/09/07 09:34:04;;;;;;;26.27;21.48;;;;;;;-146.58;100.00;69501.63;4990417;28;20025;-60
2022/09/07 09:36:33;;;;;;;23.27;21.00;;;;;;;-146.58;100.00;69501.63;4991084;28;20028;-59
2022/09/07 09:38:59;;;;;;;29.60;22.20;;;;;;;-146.58;100.00;69501.63;4990475;28;20554;-59
2022/09/07 09:41:35;;;;;;;28.40;23.08;;;;;;;-146.58;100.00;69501.63;4991560;28;20084;-59
2022/09/07 09:44:02;;;;;;;24.75;20.92;;;;;;;-146.58;100.00;69501.63;5001174;28;20041;-59
2022/09/07 09:46:33;;;;;;;25.50;21.83;;;;;;;-146.58;100.00;69501.63;5011428;28;20026;-59
2022/09/07 09:49:14;;;;;;;24.08;20.77;;;;;;;-146.58;100.00;69501.63;5010168;28;20458;-59
2022/09/07 09:51:44;;;;;;;25.50;21.90;;;;;;;-146.58;100.00;69501.63;5010526;28;20026;-59
2022/09/07 09:54:28;;;;;;;24.45;22.02;;;;;;;-146.58;100.00;69501.63;5009894;28;20045;-59
2022/09/07 09:56:53;;;;;;;25.98;21.85;;;;;;;-146.58;100.00;69501.63;5011262;28;20022;-59
2022/09/07 09:59:28;;;;;;;23.75;21.00;;;;;;;-146.58;100.00;69501.63;5009716;28;20061;-59
2022/09/07 10:01:55;;;;;;;23.30;20.80;;;;;;;-146.58;100.00;69501.63;5010713;28;20040;-60
2022/09/07 10:04:23;;;;;;;26.35;21.50;;;;;;;-146.58;100.00;69501.63;5009969;28;20145;-59
2022/09/07 10:06:52;;;;;;;26.85;21.88;;;;;;;-146.58;100.00;69501.63;5010608;28;20540;-59
2022/09/07 10:09:21;;;;;;;27.58;22.70;;;;;;;-146.58;100.00;69501.63;5009857;28;20042;-59
2022/09/07 10:11:50;;;;;;;23.48;21.05;;;;;;;-146.58;100.00;69501.63;5010923;28;20026;-59
2022/09/07 10:14:29;;;;;;;22.35;19.88;;;;;;;-146.58;100.00;69501.63;5009679;28;20092;-59
2022/09/07 10:16:55;;;;;;;23.38;20.95;;;;;;;-146.58;100.00;69501.63;5002954;28;20359;-59
2022/09/07 10:19:28;;;;;;;24.42;22.02;;;;;;;-146.58;100.00;69501.63;4989745;28;20046;-59
2022/09/07 10:21:56;;;;;;;25.65;20.30;;;;;;;-146.58;100.00;69501.63;4990517;28;20503;-59
2022/09/07 10:24:30;;;;;;;25.38;22.15;;;;;;;-146.58;100.00;69501.63;4989848;28;20046;-59
2022/09/07 10:26:56;;;;;;;23.25;20.80;;;;;;;-146.58;100.00;69501.63;4990163;28;20505;-59
2022/09/07 10:29:30;;;;;;;24.50;21.42;;;;;;;-146.58;100.00;69501.63;4989155;28;20065;-60
2022/09/07 10:32:25;;;;;;;22.85;20.38;;;;;;;-146.58;100.00;69501.63;4990995;28;20049;-60
2022/09/07 10:35:01;;;;;;;25.27;21.45;;;;;;;-146.58;100.00;69501.63;4968059;28;20050;-59
2022/09/07 10:37:44;;;;;;;22.60;20.33;;;;;;;-146.58;100.00;69501.63;4991157;28;20022;-59
2022/09/07 10:40:20;;;;;;;24.95;20.98;;;;;;;-146.58;100.00;69501.63;4989446;28;20042;-59
2022/09/07 10:42:55;;;;;;;23.05;19.83;;;;;;;-146.58;100.00;69501.63;4990609;28;20026;-59
2022/09/07 10:45:46;;;;;;;23.85;21.45;;;;;;;-146.58;100.00;69501.63;4970458;28;20069;-60
2022/09/07 10:48:31;;;;;;;22.27;19.50;;;;;;;-146.58;100.00;69501.63;4975660;28;20560;-59
2022/09/07 10:51:02;;;;;;;29.30;21.10;;;;;;;-146.58;100.00;69501.63;4973469;28;20130;-60
2022/09/07 10:53:33;;;;;;;23.52;21.13;;;;;;;-146.58;100.00;69501.63;4975624;28;20058;-60
2022/09/07 10:56:21;;;;;;;22.52;20.30;;;;;;;-146.58;100.00;69501.63;4974070;28;20035;-60
2022/09/07 10:59:11;;;;;;;22.70;20.42;;;;;;;-146.58;100.00;69501.63;4973321;28;20018;-59
2022/09/07 11:01:53;;;;;;;24.65;21.90;;;;;;;-146.58;100.00;69501.63;4975149;28;20030;-60
2022/09/07 11:04:46;;;;;;;24.77;20.27;;;;;;;-146.58;100.00;69501.63;4973444;28;20043;-59
2022/09/07 11:07:23;;;;;;;25.08;20.33;;;;;;;-146.58;100.00;69501.63;4975511;28;20042;-60
2022/09/07 11:09:53;;;;;;;22.50;20.30;;;;;;;-146.58;100.00;69501.63;4973620;28;20046;-60